Time;durP1;ratioP1;P1;durP2;ratioP2;P2;SDS_P1;SDS_P2;PMS_P1;PMS_P2;Temp;Humidity;BMP_temperature;BMP_pressure;BME280_temperature;BME280_humidity;BME280_pressure;Samples;Min_cycle;Max_cycle;Signal;HPM_P1;HPM_P2
2022/06/22 00:01:41;;;;;;;6.35;3.22;;;;;;;18.14;58.71;98541.09;5024520;28;20051;-77
2022/06/22 00:04:16;;;;;;;4.20;2.50;;;;;;;18.06;58.25;98539.91;5021214;28;20041;-76
2022/06/22 00:06:46;;;;;;;7.35;2.70;;;;;;;18.00;58.51;98543.03;5027338;28;20025;-77
2022/06/22 00:09:41;;;;;;;3.33;2.40;;;;;;;18.13;58.34;98547.59;5020667;28;20033;-77
2022/06/22 00:12:20;;;;;;;5.95;2.58;;;;;;;18.07;58.39;98552.31;4999919;28;20045;-76
2022/06/22 00:14:49;;;;;;;3.22;2.65;;;;;;;17.89;59.25;98556.75;5021559;28;20025;-76
2022/06/22 00:17:24;;;;;;;5.20;2.80;;;;;;;17.90;59.37;98550.25;5024386;28;20033;-76
2022/06/22 00:19:56;;;;;;;4.35;2.75;;;;;;;17.93;59.05;98560.44;5025096;28;20206;-76
2022/06/22 00:22:27;;;;;;;5.32;2.50;;;;;;;17.93;58.93;98565.06;5026256;28;20030;-76
2022/06/22 00:24:59;;;;;;;4.15;2.40;;;;;;;17.76;59.04;98564.84;5022174;28;20037;-76
2022/06/22 00:27:37;;;;;;;3.92;2.38;;;;;;;17.47;59.89;98546.28;5020295;28;20030;-76
2022/06/22 00:30:20;;;;;;;4.72;2.67;;;;;;;17.34;60.80;98562.44;5008992;28;20033;-76
2022/06/22 00:33:20;;;;;;;6.05;3.00;;;;;;;17.75;59.38;98557.88;5028753;28;20068;-76
2022/06/22 00:36:12;;;;;;;5.53;2.80;;;;;;;17.44;60.79;98546.84;5039494;28;20034;-76
2022/06/22 00:38:38;;;;;;;3.72;2.72;;;;;;;17.46;59.71;98543.84;5008550;28;20045;-76
2022/06/22 00:41:18;;;;;;;3.33;2.50;;;;;;;17.57;60.31;98547.97;5026115;28;20033;-77
2022/06/22 00:43:44;;;;;;;4.95;2.78;;;;;;;17.57;59.13;98546.09;5019156;28;20397;-77
2022/06/22 00:46:19;;;;;;;4.88;2.70;;;;;;;17.58;59.52;98555.75;5019766;28;20033;-77
2022/06/22 00:48:51;;;;;;;3.17;2.78;;;;;;;17.57;59.76;98561.47;5021552;28;20186;-76
2022/06/22 00:51:29;;;;;;;5.57;2.78;;;;;;;17.53;59.63;98572.06;5025873;28;20052;-76
2022/06/22 00:53:59;;;;;;;4.07;3.13;;;;;;;16.97;61.95;98561.47;5024438;28;20017;-77
2022/06/22 00:56:37;;;;;;;5.50;3.53;;;;;;;16.22;65.53;98554.59;5041514;28;21587;-76
2022/06/22 00:59:33;;;;;;;5.03;2.90;;;;;;;16.15;63.70;98543.41;5040600;28;20504;-76
2022/06/22 01:02:11;;;;;;;6.68;2.90;;;;;;;16.42;62.60;98536.22;5023490;28;20025;-77
2022/06/22 01:04:51;;;;;;;6.22;2.60;;;;;;;16.96;61.13;98534.81;5022286;28;20404;-77
2022/06/22 01:07:39;;;;;;;4.85;2.80;;;;;;;16.83;61.31;98524.81;5024823;28;20445;-76
2022/06/22 01:10:18;;;;;;;6.38;3.03;;;;;;;16.70;62.13;98530.97;5024454;28;20025;-76
2022/06/22 01:12:59;;;;;;;3.20;2.42;;;;;;;16.95;60.65;98512.44;5026564;28;20060;-76
2022/06/22 01:15:59;;;;;;;3.30;2.92;;;;;;;16.69;62.15;98511.31;5020239;28;20033;-77
2022/06/22 01:18:31;;;;;;;4.05;2.78;;;;;;;17.12;60.12;98519.97;5016922;28;20049;-77
2022/06/22 01:21:18;;;;;;;3.47;2.60;;;;;;;17.10;60.51;98514.09;5021954;28;20017;-76
2022/06/22 01:24:02;;;;;;;3.30;3.03;;;;;;;16.85;61.61;98518.03;5022234;28;20033;-76
2022/06/22 01:27:08;;;;;;;3.30;2.80;;;;;;;17.11;60.79;98505.69;5023643;28;20547;-77
2022/06/22 01:29:34;;;;;;;6.72;3.03;;;;;;;17.11;60.61;98499.47;5038127;28;20040;-76
2022/06/22 01:32:11;;;;;;;8.52;3.03;;;;;;;17.20;59.82;98497.69;5021312;28;20033;-76
2022/06/22 01:34:41;;;;;;;3.90;2.83;;;;;;;17.00;60.65;98501.56;5026380;28;20108;-76
2022/06/22 01:37:33;;;;;;;5.32;2.78;;;;;;;16.81;61.17;98497.34;5022569;28;20201;-77
2022/06/22 01:40:06;;;;;;;4.57;3.83;;;;;;;17.22;60.67;98500.88;5021537;28;20045;-76
2022/06/22 01:42:32;;;;;;;2.60;2.40;;;;;;;17.20;60.26;98495.81;5025433;28;20559;-77
2022/06/22 01:45:22;;;;;;;3.40;2.70;;;;;;;17.11;60.37;98500.28;5022840;28;20033;-77
2022/06/22 01:47:53;;;;;;;4.13;2.97;;;;;;;17.02;60.66;98506.66;5024577;28;20037;-77
2022/06/22 01:50:33;;;;;;;3.42;2.20;;;;;;;17.29;60.51;98501.28;5034744;28;20112;-77
2022/06/22 01:52:58;;;;;;;5.43;2.33;;;;;;;17.17;60.63;98488.31;5020417;28;20021;-76
2022/06/22 01:55:24;;;;;;;5.78;3.00;;;;;;;16.57;63.88;98486.72;5019319;28;20025;-77
2022/06/22 01:58:18;;;;;;;3.80;2.95;;;;;;;16.23;64.14;98465.44;5020764;28;20057;-76
2022/06/22 02:00:49;;;;;;;7.30;2.90;;;;;;;16.72;62.96;98456.00;5014159;28;20077;-76
2022/06/22 02:03:39;;;;;;;3.00;2.72;;;;;;;16.58;63.51;98466.75;5027449;28;20492;-77
2022/06/22 02:09:16;;;;;;;10.20;4.63;;;;;;;15.19;69.26;98444.31;5020857;28;20091;-76
2022/06/22 02:12:18;;;;;;;5.85;3.70;;;;;;;15.25;68.02;98441.25;5026182;28;20471;-76
2022/06/22 02:14:37;;;;;;;8.25;4.57;;;;;;;15.30;68.86;98433.16;5019938;28;20533;-76
2022/06/22 02:17:04;;;;;;;4.72;3.65;;;;;;;15.64;66.41;98449.91;5023334;28;20474;-76
2022/06/22 02:19:30;;;;;;;5.70;2.97;;;;;;;16.57;62.71;98461.69;5021935;28;20025;-76
2022/06/22 02:21:58;;;;;;;2.80;2.58;;;;;;;16.79;62.36;98465.31;5026808;28;20029;-76
2022/06/22 02:24:38;;;;;;;3.97;2.60;;;;;;;16.92;61.26;98456.44;5023353;28;20021;-76
2022/06/22 02:27:08;;;;;;;4.63;2.40;;;;;;;16.96;61.79;98473.63;5023772;28;20030;-76
2022/06/22 02:29:39;;;;;;;4.65;2.78;;;;;;;16.79;62.58;98476.09;5019981;28;20075;-76
2022/06/22 02:32:09;;;;;;;3.08;2.65;;;;;;;16.28;65.47;98470.75;5023939;28;20113;-76
2022/06/22 02:34:38;;;;;;;6.32;4.10;;;;;;;16.00;66.46;98466.34;5020989;28;21159;-76
2022/06/22 02:37:08;;;;;;;3.13;2.70;;;;;;;15.32;68.15;98457.84;5022112;28;20031;-76
2022/06/22 02:39:39;;;;;;;4.78;3.42;;;;;;;15.26;69.23;98452.81;5021746;28;20052;-76
2022/06/22 02:44:50;;;;;;;12.05;4.28;;;;;;;14.83;69.69;98460.84;5020075;28;20048;-76
2022/06/22 02:47:16;;;;;;;4.85;4.35;;;;;;;14.50;71.37;98471.66;5022496;28;20112;-76
2022/06/22 02:49:48;;;;;;;5.50;4.03;;;;;;;14.38;71.67;98463.97;5021613;28;20112;-76
2022/06/22 02:52:15;;;;;;;5.43;4.10;;;;;;;14.10;72.61;98467.41;5035680;28;20120;-76
2022/06/22 02:54:52;;;;;;;11.65;4.70;;;;;;;14.64;70.64;98478.78;5020055;28;20037;-76
2022/06/22 02:57:52;;;;;;;10.52;4.75;;;;;;;14.74;70.16;98483.25;5036512;28;20033;-76
2022/06/22 03:00:22;;;;;;;6.38;4.18;;;;;;;14.63;70.70;98473.69;5008576;28;20054;-76
2022/06/22 03:02:52;;;;;;;6.47;4.45;;;;;;;14.69;71.02;98478.72;5004234;28;20040;-77
2022/06/22 03:05:19;;;;;;;6.10;3.85;;;;;;;14.78;69.38;98477.03;5013831;28;20124;-76
2022/06/22 03:07:49;;;;;;;4.40;3.22;;;;;;;15.58;65.95;98469.09;5036378;28;20025;-77
2022/06/22 03:10:21;;;;;;;4.93;3.08;;;;;;;15.77;64.96;98470.72;5022320;28;20025;-77
2022/06/22 03:12:46;;;;;;;3.65;3.13;;;;;;;15.30;68.02;98473.47;5026121;28;20071;-77
2022/06/22 03:15:18;;;;;;;4.32;3.25;;;;;;;15.24;68.42;98477.31;5037334;28;20677;-76
2022/06/22 03:17:43;;;;;;;3.22;2.95;;;;;;;15.69;65.13;98460.63;5036201;28;20065;-76
2022/06/22 03:20:14;;;;;;;3.50;3.13;;;;;;;16.14;63.72;98469.88;5040088;28;20122;-76
2022/06/22 03:22:44;;;;;;;4.50;2.97;;;;;;;16.31;63.22;98482.84;5027461;28;20556;-77
2022/06/22 03:25:22;;;;;;;3.92;3.20;;;;;;;16.55;62.66;98490.81;5023505;28;20050;-77
2022/06/22 03:27:55;;;;;;;4.03;2.70;;;;;;;16.39;62.86;98498.31;5039323;28;20029;-77
2022/06/22 03:30:29;;;;;;;5.70;4.75;;;;;;;15.51;67.64;98482.09;5025043;28;20104;-76
2022/06/22 03:33:04;;;;;;;4.07;2.95;;;;;;;15.52;65.99;98470.28;5040175;28;20032;-77
2022/06/22 03:35:44;;;;;;;3.78;2.83;;;;;;;16.15;63.50;98473.38;5019938;28;20536;-76
2022/06/22 03:38:20;;;;;;;5.57;3.42;;;;;;;16.36;62.76;98475.44;5026105;28;20033;-76
2022/06/22 03:40:54;;;;;;;5.80;2.95;;;;;;;16.15;64.06;98471.50;5019049;28;20473;-76
2022/06/22 03:43:28;;;;;;;4.93;3.38;;;;;;;16.02;64.22;98466.84;5024047;28;20080;-76
2022/06/22 03:46:01;;;;;;;5.10;3.90;;;;;;;15.19;68.00;98476.56;5024424;28;20041;-76
2022/06/22 03:48:41;;;;;;;6.68;3.78;;;;;;;15.19;66.77;98463.13;5039258;28;20041;-76
2022/06/22 03:51:19;;;;;;;3.75;3.25;;;;;;;15.98;64.15;98481.19;5019029;28;20045;-76
2022/06/22 03:54:02;;;;;;;4.75;2.95;;;;;;;15.94;64.75;98496.34;5019180;28;20500;-77
2022/06/22 03:56:37;;;;;;;3.17;2.55;;;;;;;15.41;65.54;98466.88;5026024;28;20057;-77
2022/06/22 03:59:05;;;;;;;6.05;4.10;;;;;;;14.95;68.58;98485.44;5035389;28;20124;-76
2022/06/22 04:01:31;;;;;;;5.65;3.47;;;;;;;14.77;68.81;98477.28;5021805;28;20029;-77
2022/06/22 04:03:57;;;;;;;4.72;3.28;;;;;;;15.40;66.80;98494.03;5025735;28;20029;-77
2022/06/22 04:06:31;;;;;;;3.20;2.85;;;;;;;15.81;64.94;98486.28;5027181;28;20029;-77
2022/06/22 04:08:58;;;;;;;3.65;2.85;;;;;;;15.39;66.38;98471.75;5043282;28;20060;-76
2022/06/22 04:11:31;;;;;;;7.15;3.90;;;;;;;14.81;70.61;98476.44;5008391;28;20543;-76
2022/06/22 04:14:02;;;;;;;8.27;4.53;;;;;;;14.29;72.16;98481.78;5023461;28;20489;-76
2022/06/22 04:16:34;;;;;;;4.90;3.58;;;;;;;14.81;70.35;98467.56;5027039;28;20029;-76
2022/06/22 04:19:14;;;;;;;5.45;3.97;;;;;;;14.94;70.21;98478.47;5024571;28;20030;-76
2022/06/22 04:21:53;;;;;;;6.55;3.53;;;;;;;14.42;71.70;98480.31;5021798;28;20029;-76
2022/06/22 04:24:26;;;;;;;3.28;2.97;;;;;;;15.57;66.61;98486.34;5028620;28;20030;-76
2022/06/22 04:27:09;;;;;;;4.28;3.00;;;;;;;15.75;66.88;98482.84;5023923;28;20116;-77
2022/06/22 04:29:46;;;;;;;8.07;4.47;;;;;;;15.28;69.46;98472.97;5025848;28;20116;-76
2022/06/22 04:32:21;;;;;;;5.68;4.13;;;;;;;15.32;69.68;98473.19;5005528;28;21130;-77
2022/06/22 04:35:17;;;;;;;8.20;3.50;;;;;;;15.93;66.90;98490.13;5020970;28;20022;-76
2022/06/22 04:37:50;;;;;;;7.15;3.95;;;;;;;15.24;68.75;98480.00;5021256;28;20124;-76
2022/06/22 04:40:35;;;;;;;6.57;4.40;;;;;;;15.43;70.04;98483.56;5005107;28;20029;-77
2022/06/22 04:43:04;;;;;;;8.90;3.80;;;;;;;15.03;70.50;98482.13;5004386;28;20480;-76
2022/06/22 04:45:30;;;;;;;5.97;3.90;;;;;;;15.06;70.50;98477.25;5007020;28;20040;-77
2022/06/22 04:48:08;;;;;;;6.90;3.80;;;;;;;15.55;69.04;98480.47;5007616;28;20056;-76
2022/06/22 04:50:36;;;;;;;8.77;3.38;;;;;;;16.25;66.87;98487.47;5006980;28;20839;-76
2022/06/22 04:53:02;;;;;;;8.77;3.53;;;;;;;16.46;65.31;98499.56;5006504;28;20744;-77
2022/06/22 04:55:30;;;;;;;5.50;3.42;;;;;;;16.40;65.64;98503.41;5009343;28;20392;-76
2022/06/22 04:58:03;;;;;;;5.20;3.10;;;;;;;16.07;66.86;98496.41;5023662;28;20740;-76
2022/06/22 05:00:32;;;;;;;7.50;3.90;;;;;;;15.59;67.85;98500.31;5009851;28;20034;-77
2022/06/22 05:03:05;;;;;;;5.60;3.17;;;;;;;16.37;66.06;98506.69;5010514;28;20592;-76
2022/06/22 05:05:33;;;;;;;5.53;3.42;;;;;;;16.16;66.14;98505.41;5006284;28;20150;-77
2022/06/22 05:08:06;;;;;;;4.57;2.70;;;;;;;16.51;65.61;98511.38;5007581;28;20076;-76
2022/06/22 05:10:50;;;;;;;10.00;3.00;;;;;;;16.03;66.84;98514.22;5003900;28;20489;-76
2022/06/22 05:13:32;;;;;;;4.85;3.55;;;;;;;16.11;68.20;98500.09;5007217;28;20037;-76
2022/06/22 05:16:00;;;;;;;4.35;3.03;;;;;;;15.93;66.22;98506.28;5007194;28;20641;-76
2022/06/22 05:18:33;;;;;;;8.43;3.72;;;;;;;16.68;64.45;98506.22;5013135;28;20029;-76
2022/06/22 05:21:10;;;;;;;6.85;3.78;;;;;;;16.02;65.35;98509.13;5007901;28;20040;-77
2022/06/22 05:23:36;;;;;;;6.20;3.25;;;;;;;15.69;66.68;98481.34;5008184;28;20040;-76
2022/06/22 05:26:06;;;;;;;12.82;3.38;;;;;;;14.76;68.03;98500.69;5005721;28;20136;-76
2022/06/22 05:28:39;;;;;;;4.65;2.55;;;;;;;15.48;67.28;98504.22;5016444;28;20036;-76
2022/06/22 05:31:10;;;;;;;9.35;3.63;;;;;;;15.01;68.76;98507.69;5024969;28;20562;-76
2022/06/22 05:33:39;;;;;;;6.78;3.55;;;;;;;14.96;68.31;98503.16;5025139;28;20029;-76
2022/06/22 05:36:08;;;;;;;9.63;4.80;;;;;;;15.44;67.19;98509.34;5027442;28;20385;-76
2022/06/22 05:38:37;;;;;;;3.85;3.25;;;;;;;15.00;69.56;98509.56;5027580;28;20029;-76
2022/06/22 05:41:08;;;;;;;6.13;2.80;;;;;;;15.72;67.87;98507.69;5028262;28;20025;-76
2022/06/22 05:43:36;;;;;;;9.55;3.80;;;;;;;15.74;67.50;98516.25;5028153;28;20528;-76
2022/06/22 05:46:02;;;;;;;12.25;3.60;;;;;;;16.57;65.11;98537.94;5021089;28;20052;-76
2022/06/22 05:48:31;;;;;;;12.02;3.63;;;;;;;15.43;66.91;98541.91;5006702;28;20067;-76
2022/06/22 05:51:04;;;;;;;5.38;3.17;;;;;;;16.73;65.10;98541.19;5009444;28;20106;-76
2022/06/22 05:53:42;;;;;;;9.65;2.90;;;;;;;16.84;63.95;98535.28;5026178;28;20477;-76
2022/06/22 05:56:29;;;;;;;9.65;3.17;;;;;;;16.46;64.42;98531.06;5026483;28;20029;-76
2022/06/22 05:59:13;;;;;;;8.25;2.70;;;;;;;15.87;66.02;98518.22;5044851;28;20443;-76
2022/06/22 06:01:47;;;;;;;6.65;2.90;;;;;;;16.53;64.43;98539.63;5023961;28;20069;-76
2022/06/22 06:04:26;;;;;;;5.75;3.17;;;;;;;16.21;65.03;98517.97;5028393;28;20037;-76
2022/06/22 06:06:54;;;;;;;5.95;3.95;;;;;;;15.70;65.17;98539.47;5027936;28;20026;-76
2022/06/22 06:09:23;;;;;;;8.05;3.17;;;;;;;15.49;66.08;98538.09;5025029;28;20030;-76
2022/06/22 06:12:15;;;;;;;9.63;3.55;;;;;;;16.71;64.13;98536.06;5026105;28;20076;-76
2022/06/22 06:14:46;;;;;;;7.53;2.95;;;;;;;17.10;62.04;98544.53;5025327;28;20032;-76
2022/06/22 06:17:35;;;;;;;7.18;3.60;;;;;;;15.92;65.33;98560.44;5033039;28;20103;-76
2022/06/22 06:20:03;;;;;;;6.78;2.97;;;;;;;16.40;62.90;98557.28;5025853;28;20042;-76
2022/06/22 06:22:30;;;;;;;5.95;2.67;;;;;;;16.21;63.46;98553.81;5027438;28;20030;-76
2022/06/22 06:27:54;;;;;;;7.82;3.05;;;;;;;15.37;65.44;98540.38;5021242;28;20063;-75
2022/06/22 06:30:42;;;;;;;5.03;3.00;;;;;;;15.72;66.47;98551.53;5022625;28;20437;-77
2022/06/22 06:33:20;;;;;;;5.20;2.85;;;;;;;16.42;65.42;98573.94;5027516;28;20120;-76
2022/06/22 06:35:47;;;;;;;4.75;2.60;;;;;;;16.17;63.61;98560.88;5006069;28;20029;-76
2022/06/22 06:38:36;;;;;;;7.35;3.30;;;;;;;15.97;64.26;98571.91;5008351;28;20036;-76
2022/06/22 06:41:13;;;;;;;5.10;2.67;;;;;;;15.80;65.13;98543.88;5008766;28;20025;-76
2022/06/22 06:44:01;;;;;;;8.80;3.28;;;;;;;16.81;62.79;98570.94;5012661;28;20072;-77
2022/06/22 06:46:29;;;;;;;9.25;2.92;;;;;;;16.99;63.10;98569.28;5016990;28;20079;-76
2022/06/22 06:49:03;;;;;;;9.10;3.55;;;;;;;16.71;63.61;98568.41;5018070;28;20482;-76
2022/06/22 06:51:30;;;;;;;6.40;3.33;;;;;;;17.80;61.63;98572.03;5009791;28;20033;-76
2022/06/22 06:53:59;;;;;;;4.65;3.35;;;;;;;17.42;62.92;98549.06;5027414;28;20030;-76
2022/06/22 06:56:48;;;;;;;7.32;3.90;;;;;;;16.89;63.55;98572.16;5026179;28;20112;-76
2022/06/22 06:59:18;;;;;;;6.40;3.67;;;;;;;17.21;63.95;98569.44;5013104;28;20041;-76
2022/06/22 07:01:46;;;;;;;10.13;4.32;;;;;;;16.56;65.20;98552.47;5014314;28;20044;-76
2022/06/22 07:04:17;;;;;;;6.10;3.05;;;;;;;16.70;65.19;98552.53;5014976;28;20816;-77
2022/06/22 07:06:44;;;;;;;4.75;2.70;;;;;;;17.36;63.24;98550.25;5014653;28;20091;-77
2022/06/22 07:09:31;;;;;;;6.93;3.38;;;;;;;17.46;64.18;98551.94;5031881;28;20128;-76
2022/06/22 07:12:05;;;;;;;4.10;2.58;;;;;;;18.37;61.16;98550.81;5012974;28;20048;-76
2022/06/22 07:14:39;;;;;;;7.30;3.65;;;;;;;17.54;63.27;98554.00;5010925;28;20018;-77
2022/06/22 07:17:09;;;;;;;12.27;2.72;;;;;;;17.94;62.13;98540.44;5011105;28;20038;-76
2022/06/22 07:19:42;;;;;;;10.20;4.07;;;;;;;17.43;62.71;98528.28;5011201;28;20061;-76
2022/06/22 07:22:15;;;;;;;5.57;2.90;;;;;;;17.56;63.53;98532.91;5014939;28;20092;-76
2022/06/22 07:24:53;;;;;;;6.03;3.30;;;;;;;17.93;62.49;98509.13;5014044;28;20068;-76
2022/06/22 07:27:34;;;;;;;6.50;2.45;;;;;;;18.54;60.92;98532.84;5012534;28;20037;-76
2022/06/22 07:30:06;;;;;;;5.22;2.50;;;;;;;18.50;61.33;98531.09;5012635;28;20488;-76
2022/06/22 07:33:02;;;;;;;4.05;2.50;;;;;;;19.04;59.54;98519.16;5010400;28;20389;-76
2022/06/22 07:35:36;;;;;;;7.25;3.17;;;;;;;19.03;60.50;98539.19;5012822;28;20041;-77
2022/06/22 07:38:10;;;;;;;3.33;2.75;;;;;;;18.29;60.89;98543.44;5014373;28;20037;-76
2022/06/22 07:40:39;;;;;;;8.75;3.40;;;;;;;17.93;62.20;98543.44;5023736;28;20039;-76
2022/06/22 07:43:05;;;;;;;9.10;2.95;;;;;;;18.28;63.77;98531.81;5007692;28;20021;-77
2022/06/22 07:45:31;;;;;;;8.90;3.08;;;;;;;18.76;60.76;98521.25;5010046;28;20172;-76
2022/06/22 07:48:19;;;;;;;5.80;2.97;;;;;;;18.31;60.72;98522.31;5007475;28;20026;-77
2022/06/22 07:50:50;;;;;;;3.85;3.03;;;;;;;18.33;60.90;98511.97;5013037;28;20032;-77
2022/06/22 07:53:51;;;;;;;6.88;3.03;;;;;;;18.40;61.11;98505.06;5013873;28;20037;-76
2022/06/22 07:56:37;;;;;;;5.28;3.13;;;;;;;18.60;60.77;98498.38;5009079;28;20047;-76
2022/06/22 07:59:29;;;;;;;4.28;2.63;;;;;;;18.47;60.76;98493.84;5008350;28;20068;-76
2022/06/22 08:02:02;;;;;;;5.55;2.97;;;;;;;18.48;60.36;98504.34;5016690;28;20103;-76
2022/06/22 08:04:36;;;;;;;5.88;3.40;;;;;;;18.50;61.08;98498.66;5014034;28;20120;-76
2022/06/22 08:07:08;;;;;;;7.13;2.88;;;;;;;18.41;58.35;98486.94;5015513;28;20029;-76
2022/06/22 08:09:37;;;;;;;4.00;2.85;;;;;;;18.99;60.05;98494.94;5018340;28;20029;-77
2022/06/22 08:12:17;;;;;;;8.50;2.42;;;;;;;19.30;58.90;98493.78;5016312;28;20070;-76
2022/06/22 08:14:46;;;;;;;6.35;2.88;;;;;;;19.66;57.22;98495.53;5011222;28;20029;-76
2022/06/22 08:17:40;;;;;;;4.68;3.03;;;;;;;19.24;58.08;98486.91;5013918;28;20083;-76
2022/06/22 08:20:07;;;;;;;5.63;2.38;;;;;;;19.60;58.52;98486.72;5024138;28;20112;-76
2022/06/22 08:22:32;;;;;;;5.75;3.00;;;;;;;19.65;57.88;98493.91;4995190;28;20624;-76
2022/06/22 08:25:00;;;;;;;7.40;3.53;;;;;;;18.87;57.75;98481.19;5015446;28;20087;-76
2022/06/22 08:27:27;;;;;;;4.75;2.67;;;;;;;18.96;58.57;98473.94;5016080;28;20025;-77
2022/06/22 08:29:54;;;;;;;9.25;2.65;;;;;;;19.63;57.58;98477.19;5052520;28;20025;-76
2022/06/22 08:32:27;;;;;;;5.32;2.60;;;;;;;19.16;58.87;98484.97;5026827;28;20021;-76
2022/06/22 08:35:01;;;;;;;5.97;2.35;;;;;;;20.45;56.48;98472.44;5010140;28;20029;-76
2022/06/22 08:37:47;;;;;;;2.05;1.70;;;;;;;20.66;55.89;98494.25;5032008;28;20037;-76
2022/06/22 08:40:13;;;;;;;7.20;3.28;;;;;;;20.45;56.06;98494.13;5037269;28;20033;-76
2022/06/22 08:43:08;;;;;;;4.53;2.38;;;;;;;19.52;55.32;98490.22;5038210;28;20447;-76
2022/06/22 08:45:49;;;;;;;3.80;2.20;;;;;;;20.18;56.78;98491.75;5031485;28;20061;-76
2022/06/22 08:48:36;;;;;;;5.70;2.50;;;;;;;20.51;56.24;98506.38;5051124;28;20055;-77
2022/06/22 08:51:11;;;;;;;5.35;1.98;;;;;;;20.97;55.66;98507.59;5030159;28;20033;-76
2022/06/22 08:53:53;;;;;;;4.03;2.67;;;;;;;20.87;55.65;98498.66;5025452;28;20517;-77
2022/06/22 08:56:33;;;;;;;5.60;2.53;;;;;;;20.43;57.19;98509.13;5039350;28;20029;-76
2022/06/22 08:59:18;;;;;;;13.50;3.70;;;;;;;20.21;56.80;98512.00;5030883;28;20029;-76
2022/06/22 09:01:50;;;;;;;2.90;2.33;;;;;;;20.13;57.64;98519.00;5031572;28;20060;-77
2022/06/22 09:04:33;;;;;;;6.32;2.33;;;;;;;20.64;57.39;98508.13;5033353;28;20044;-77
2022/06/22 09:07:23;;;;;;;4.88;2.90;;;;;;;20.38;55.58;98515.50;5029735;28;20029;-76
2022/06/22 09:09:57;;;;;;;5.70;3.15;;;;;;;21.06;56.40;98506.44;5019855;28;20037;-77
2022/06/22 09:12:53;;;;;;;3.28;2.05;;;;;;;20.96;54.83;98512.22;5011106;28;20063;-77
2022/06/22 09:15:40;;;;;;;6.15;2.40;;;;;;;20.64;55.70;98510.84;5011913;28;20033;-76
2022/06/22 09:18:26;;;;;;;2.25;2.05;;;;;;;21.12;52.81;98515.22;5012561;28;20040;-77
2022/06/22 09:21:00;;;;;;;3.42;2.10;;;;;;;21.05;55.43;98517.63;5037315;28;20025;-77
2022/06/22 09:23:40;;;;;;;6.75;2.78;;;;;;;21.12;53.01;98517.94;5038285;28;20120;-77
2022/06/22 09:26:30;;;;;;;6.43;2.20;;;;;;;21.45;53.44;98516.97;5035367;28;20150;-77
2022/06/22 09:29:00;;;;;;;5.57;2.30;;;;;;;21.32;54.60;98522.63;5010628;28;20156;-77
2022/06/22 09:31:31;;;;;;;6.90;2.13;;;;;;;21.14;52.66;98518.41;5010548;28;20029;-77
2022/06/22 09:34:25;;;;;;;6.45;2.33;;;;;;;21.37;53.80;98517.03;5010381;28;20021;-76
2022/06/22 09:37:06;;;;;;;6.18;2.35;;;;;;;20.86;53.43;98526.91;5026236;28;20033;-77
2022/06/22 09:39:40;;;;;;;7.43;2.35;;;;;;;20.57;53.04;98526.03;5027882;28;20036;-77
2022/06/22 09:42:37;;;;;;;4.97;2.42;;;;;;;20.95;53.32;98517.97;5022815;28;20030;-77
2022/06/22 09:45:07;;;;;;;;;;;;;;;21.82;54.10;98531.63;5010444;28;20029;-77
2022/06/22 09:47:51;;;;;;;5.90;2.15;;;;;;;22.55;52.83;98521.97;5009356;28;20285;-77
2022/06/22 09:50:42;;;;;;;6.70;1.85;;;;;;;22.83;52.29;98525.75;5025780;28;20485;-77
2022/06/22 09:53:36;;;;;;;3.78;2.20;;;;;;;21.83;52.88;98527.81;5024544;28;20033;-77
2022/06/22 09:56:23;;;;;;;3.65;2.20;;;;;;;21.75;52.38;98530.56;5009220;28;20150;-76
2022/06/22 09:59:06;;;;;;;5.90;2.40;;;;;;;21.36;51.56;98532.50;5021985;28;20017;-77
2022/06/22 10:01:56;;;;;;;3.35;1.73;;;;;;;22.03;52.24;98527.06;5029013;28;20055;-76
2022/06/22 10:05:23;;;;;;;4.07;2.33;;;;;;;22.43;51.93;98530.09;5028208;28;20128;-77
2022/06/22 10:08:05;;;;;;;3.40;2.50;;;;;;;22.10;49.13;98526.53;4983396;28;20049;-77
2022/06/22 10:10:49;;;;;;;6.22;2.63;;;;;;;21.80;49.55;98533.09;5024557;28;20956;-76
2022/06/22 10:13:43;;;;;;;3.53;2.00;;;;;;;22.21;48.98;98525.78;5005764;28;20076;-76
2022/06/22 10:16:14;;;;;;;8.07;2.05;;;;;;;23.27;50.14;98534.22;5008567;28;20033;-77
2022/06/22 10:18:58;;;;;;;3.40;1.75;;;;;;;23.85;48.80;98539.25;5007942;28;20075;-77
2022/06/22 10:21:36;;;;;;;7.88;2.85;;;;;;;23.22;47.59;98529.78;5007360;28;20029;-78
2022/06/22 10:24:39;;;;;;;2.90;1.63;;;;;;;23.56;48.73;98529.41;5010368;28;20037;-77
2022/06/22 10:27:29;;;;;;;4.28;1.83;;;;;;;23.72;47.22;98537.69;5008116;28;20033;-76
2022/06/22 10:30:25;;;;;;;2.60;1.95;;;;;;;23.03;46.14;98541.22;5008623;28;20033;-76
2022/06/22 10:33:11;;;;;;;3.60;2.08;;;;;;;22.80;47.42;98547.41;5007731;28;20142;-77
2022/06/22 10:36:13;;;;;;;8.20;2.17;;;;;;;23.26;46.31;98544.34;5012316;28;20057;-77
2022/06/22 10:38:58;;;;;;;2.22;1.75;;;;;;;23.59;45.93;98511.56;5008726;28;20028;-77
2022/06/22 10:45:11;;;;;;;3.55;2.38;;;;;;;23.70;46.16;98524.38;5009976;28;20464;-77
2022/06/22 10:48:03;;;;;;;2.05;1.75;;;;;;;23.40;46.10;98528.47;5007899;28;20044;-77
2022/06/22 10:50:44;;;;;;;2.78;2.05;;;;;;;23.97;47.03;98517.41;5022556;28;20033;-77
2022/06/22 10:53:20;;;;;;;6.10;2.42;;;;;;;23.26;47.30;98516.28;5019919;28;20035;-77
2022/06/22 10:56:22;;;;;;;3.85;2.33;;;;;;;23.64;48.06;98511.31;5007733;28;22102;-77
2022/06/22 10:58:50;;;;;;;5.90;2.13;;;;;;;24.44;47.63;98515.72;5019885;28;20505;-77
2022/06/22 11:01:37;;;;;;;4.88;2.30;;;;;;;24.25;45.61;98520.22;5006558;28;20040;-77
2022/06/22 11:04:40;;;;;;;2.95;2.13;;;;;;;23.92;45.92;98512.19;5008867;28;20107;-77
2022/06/22 11:07:23;;;;;;;4.40;2.50;;;;;;;23.90;47.90;98510.94;5008214;28;20369;-77
2022/06/22 11:10:08;;;;;;;2.28;1.67;;;;;;;25.27;45.74;98517.56;5009681;28;20025;-77
2022/06/22 11:12:36;;;;;;;4.45;2.13;;;;;;;25.98;44.91;98517.31;5021833;28;20029;-77
2022/06/22 11:15:20;;;;;;;5.15;2.03;;;;;;;24.97;45.47;98517.19;5008891;28;21214;-77
2022/06/22 11:17:49;;;;;;;3.03;2.10;;;;;;;25.34;46.14;98508.75;5007328;28;20057;-77
2022/06/22 11:20:45;;;;;;;3.42;1.98;;;;;;;24.27;45.65;98501.56;5003956;28;20041;-77
2022/06/22 11:23:12;;;;;;;5.78;2.72;;;;;;;23.79;46.02;98497.78;5007507;28;20035;-78
2022/06/22 11:32:10;;;;;;;3.17;2.00;;;;;;;25.99;43.32;98489.59;5008879;28;20036;-77
2022/06/22 11:35:23;;;;;;;4.68;2.42;;;;;;;25.42;43.59;98494.94;5013110;28;20079;-77
2022/06/22 11:37:51;;;;;;;2.63;2.03;;;;;;;24.96;44.30;98488.31;4987481;28;20374;-77
2022/06/22 11:40:43;;;;;;;4.50;2.33;;;;;;;25.58;43.93;98492.97;5010703;28;20552;-77
2022/06/22 11:43:34;;;;;;;2.63;1.95;;;;;;;26.57;42.92;98495.13;5012183;28;21199;-77
2022/06/22 11:46:15;;;;;;;5.03;2.08;;;;;;;25.68;43.04;98492.44;5012849;28;20988;-77
2022/06/22 11:48:40;;;;;;;5.00;1.92;;;;;;;27.11;42.70;98489.47;5011039;28;21076;-77
2022/06/22 11:51:31;;;;;;;5.47;2.45;;;;;;;26.90;40.76;98489.91;5027723;28;20086;-77
2022/06/22 11:54:29;;;;;;;6.30;2.25;;;;;;;27.63;42.46;98486.81;5011832;28;20036;-77
2022/06/22 11:57:00;;;;;;;3.63;1.80;;;;;;;25.94;42.40;98489.09;5006452;28;20270;-77
2022/06/22 11:59:59;;;;;;;2.50;2.30;;;;;;;25.97;41.64;98497.38;5020193;28;20520;-77
2022/06/22 12:02:28;;;;;;;3.83;1.80;;;;;;;26.24;42.84;98494.84;5009374;28;20369;-77
2022/06/22 12:05:02;;;;;;;6.60;1.92;;;;;;;26.81;42.07;98483.88;5004728;28;20493;-77
2022/06/22 12:07:43;;;;;;;3.33;1.80;;;;;;;27.27;39.81;98501.91;5022195;28;20033;-77
2022/06/22 12:10:39;;;;;;;4.20;2.00;;;;;;;27.46;40.63;98496.38;5024381;28;20083;-77
2022/06/22 12:13:21;;;;;;;5.00;1.75;;;;;;;28.39;40.59;98493.00;5006099;28;20651;-77
2022/06/22 12:16:35;;;;;;;2.33;2.08;;;;;;;27.49;40.11;98492.09;5002034;28;20029;-77
2022/06/22 12:19:18;;;;;;;3.83;1.42;;;;;;;26.62;38.75;98503.84;5023649;28;20084;-77
2022/06/22 12:21:53;;;;;;;3.05;1.98;;;;;;;27.07;38.78;98491.38;5007506;28;20535;-77
2022/06/22 12:24:57;;;;;;;6.03;2.10;;;;;;;26.13;39.49;98483.66;5019604;28;20033;-77
2022/06/22 12:27:30;;;;;;;3.17;1.85;;;;;;;27.41;41.16;98491.19;5023521;28;20246;-77
2022/06/22 12:30:47;;;;;;;3.55;1.83;;;;;;;27.80;40.91;98497.28;5003715;28;20036;-77
2022/06/22 12:33:23;;;;;;;3.50;1.90;;;;;;;26.68;39.03;98483.22;4975015;28;20500;-77
2022/06/22 12:35:57;;;;;;;6.00;2.08;;;;;;;26.92;39.66;98493.06;5011236;28;21223;-77
2022/06/22 12:38:36;;;;;;;2.70;1.63;;;;;;;28.56;40.44;98478.66;5006687;28;20033;-77
2022/06/22 12:41:30;;;;;;;4.03;1.80;;;;;;;28.04;38.38;98463.94;5013175;28;20039;-77
2022/06/22 12:44:21;;;;;;;3.92;2.08;;;;;;;28.28;38.56;98467.34;5010073;28;21252;-77